Time;durP1;ratioP1;P1;durP2;ratioP2;P2;SDS_P1;SDS_P2;PMS_P1;PMS_P2;Temp;Humidity;BMP_temperature;BMP_pressure;BME280_temperature;BME280_humidity;BME280_pressure;Samples;Min_cycle;Max_cycle;Signal;HPM_P1;HPM_P2
2023/12/14 15:26:32;;;;;;;25.73;14.68;;;7.40;99.90;;;;;;5023979;28;20653;-47
2023/12/14 15:28:59;;;;;;;24.95;14.73;;;7.30;99.90;;;;;;5018828;28;20302;-44
2023/12/14 15:31:25;;;;;;;22.33;14.50;;;7.30;99.90;;;;;;5019426;28;20196;-46
2023/12/14 15:33:51;;;;;;;28.05;14.98;;;7.30;99.90;;;;;;5019098;28;20180;-52
2023/12/14 15:36:17;;;;;;;27.77;15.73;;;7.30;99.90;;;;;;5017911;28;20188;-49
2023/12/14 15:38:46;;;;;;;26.83;15.77;;;7.30;99.90;;;;;;5018033;28;20610;-46
2023/12/14 15:41:18;;;;;;;28.05;16.05;;;7.30;99.90;;;;;;5016451;28;20196;-49
2023/12/14 15:43:44;;;;;;;27.30;15.45;;;7.30;99.90;;;;;;5018255;28;20370;-49
2023/12/14 15:46:10;;;;;;;34.10;16.67;;;7.30;99.90;;;;;;5018520;28;20215;-46
2023/12/14 15:48:38;;;;;;;27.38;16.13;;;7.30;99.90;;;;;;5017448;28;20191;-46
2023/12/14 15:51:05;;;;;;;25.60;15.57;;;7.30;99.90;;;;;;5017715;28;20195;-47
2023/12/14 15:53:31;;;;;;;28.70;16.25;;;7.30;99.90;;;;;;5017124;28;20192;-48
2023/12/14 15:55:58;;;;;;;31.38;15.75;;;7.30;99.90;;;;;;5018119;28;20196;-45
2023/12/14 15:58:24;;;;;;;29.83;17.90;;;7.30;99.90;;;;;;5015590;28;20671;-48
2023/12/14 16:00:51;;;;;;;31.05;16.02;;;7.30;99.90;;;;;;5017492;28;20192;-47
2023/12/14 16:03:16;;;;;;;26.35;16.25;;;7.30;99.90;;;;;;5016509;28;20203;-45
2023/12/14 16:05:43;;;;;;;32.15;15.57;;;7.30;99.90;;;;;;5017156;28;20204;-44
2023/12/14 16:08:10;;;;;;;25.95;15.65;;;7.30;99.90;;;;;;5031600;28;20194;-45
2023/12/14 16:10:35;;;;;;;27.95;16.02;;;7.30;99.90;;;;;;5017597;28;20188;-45
2023/12/14 16:13:02;;;;;;;31.45;17.02;;;7.40;99.90;;;;;;5018268;28;20180;-48
2023/12/14 16:15:28;;;;;;;28.48;16.45;;;7.40;99.90;;;;;;5017920;28;20238;-47
2023/12/14 16:17:54;;;;;;;27.42;15.45;;;7.40;99.90;;;;;;5017974;28;20236;-47
2023/12/14 16:20:22;;;;;;;25.25;15.32;;;7.40;99.90;;;;;;5017403;28;20192;-46
2023/12/14 16:22:49;;;;;;;25.77;15.10;;;7.40;99.90;;;;;;5016410;28;20188;-45
2023/12/14 16:25:15;;;;;;;25.80;15.18;;;7.40;99.90;;;;;;5016674;28;20642;-50
2023/12/14 16:27:43;;;;;;;23.55;15.07;;;7.40;99.90;;;;;;5017427;28;20656;-44
2023/12/14 16:30:10;;;;;;;25.23;15.00;;;7.40;99.90;;;;;;5016207;28;20214;-44
2023/12/14 16:32:36;;;;;;;28.10;13.98;;;7.40;99.90;;;;;;5015277;28;21099;-50
2023/12/14 16:35:02;;;;;;;24.70;13.73;;;7.40;99.90;;;;;;5017753;28;20200;-45
2023/12/14 16:37:30;;;;;;;25.45;13.95;;;7.40;99.90;;;;;;5004687;28;20200;-47
2023/12/14 16:39:57;;;;;;;22.98;13.55;;;7.30;99.90;;;;;;5003923;28;20243;-46
2023/12/14 16:42:23;;;;;;;19.77;12.88;;;7.30;99.90;;;;;;5003480;28;20676;-48
2023/12/14 16:44:49;;;;;;;24.15;13.65;;;7.30;99.90;;;;;;5001421;28;20230;-45
2023/12/14 16:47:15;;;;;;;23.65;13.10;;;7.30;99.90;;;;;;5000286;28;20688;-49
2023/12/14 16:49:41;;;;;;;23.33;14.07;;;7.30;99.90;;;;;;5003223;28;20180;-47
2023/12/14 16:52:07;;;;;;;22.65;12.75;;;7.30;99.90;;;;;;5003838;28;20196;-45
2023/12/14 16:54:34;;;;;;;22.75;13.38;;;7.30;99.90;;;;;;5003361;28;20275;-48
2023/12/14 16:57:02;;;;;;;23.45;12.57;;;7.30;99.90;;;;;;5003727;28;20219;-45
2023/12/14 16:59:28;;;;;;;21.52;12.27;;;7.40;99.90;;;;;;4989995;28;20199;-47
2023/12/14 17:01:54;;;;;;;20.95;12.70;;;7.30;99.90;;;;;;5003580;28;20556;-50
2023/12/14 17:04:20;;;;;;;20.92;12.40;;;7.30;99.90;;;;;;5002936;28;20260;-47
2023/12/14 17:06:46;;;;;;;20.42;12.02;;;7.30;99.90;;;;;;5002486;28;20197;-49
2023/12/14 17:09:12;;;;;;;20.50;12.30;;;7.40;99.90;;;;;;5003218;28;20188;-45
2023/12/14 17:11:38;;;;;;;19.42;12.50;;;7.30;99.90;;;;;;5004162;28;20199;-44
2023/12/14 17:14:04;;;;;;;23.08;12.57;;;7.30;99.90;;;;;;5003153;28;20276;-45
2023/12/14 17:16:30;;;;;;;25.67;12.75;;;7.30;99.90;;;;;;5003117;28;20539;-45
2023/12/14 17:18:56;;;;;;;21.92;12.15;;;7.30;99.90;;;;;;5002721;28;20199;-47
2023/12/14 17:21:27;;;;;;;18.17;12.23;;;7.30;99.90;;;;;;5003133;28;20200;-47
2023/12/14 17:23:54;;;;;;;24.35;13.18;;;7.30;99.90;;;;;;5002330;28;20593;-48
2023/12/14 17:26:20;;;;;;;25.00;12.48;;;7.30;99.90;;;;;;5002446;28;20228;-49
2023/12/14 17:28:48;;;;;;;20.23;12.63;;;7.30;99.90;;;;;;5002466;28;20221;-49
2023/12/14 17:31:15;;;;;;;20.30;13.18;;;7.30;99.90;;;;;;5001171;28;20220;-46
2023/12/14 17:33:41;;;;;;;23.67;13.30;;;7.20;99.90;;;;;;5003222;28;20193;-45
2023/12/14 17:36:08;;;;;;;20.65;13.48;;;7.20;99.90;;;;;;4984300;28;20574;-43
2023/12/14 17:38:34;;;;;;;19.80;12.80;;;7.30;99.90;;;;;;5016304;28;20199;-47
2023/12/14 17:41:10;;;;;;;22.33;13.90;;;7.30;99.90;;;;;;5001556;28;20188;-46
2023/12/14 17:43:36;;;;;;;23.60;13.90;;;7.30;99.90;;;;;;5002660;28;20196;-52
2023/12/14 17:46:03;;;;;;;21.92;13.15;;;7.30;99.90;;;;;;5002482;28;20220;-46
2023/12/14 17:48:29;;;;;;;20.98;12.77;;;7.30;99.90;;;;;;5016469;28;20185;-45
2023/12/14 17:50:56;;;;;;;21.13;12.93;;;7.30;99.90;;;;;;5002273;28;20192;-48
2023/12/14 17:53:23;;;;;;;19.58;12.85;;;7.20;99.90;;;;;;5001819;28;20247;-47
2023/12/14 17:55:49;;;;;;;23.65;13.45;;;7.20;99.90;;;;;;5002452;28;20193;-48
2023/12/14 17:58:15;;;;;;;24.02;13.10;;;7.20;99.90;;;;;;5002931;28;20192;-44
2023/12/14 18:00:41;;;;;;;21.27;12.77;;;7.20;99.90;;;;;;5002483;28;20192;-45
2023/12/14 18:03:07;;;;;;;22.83;13.77;;;7.10;99.90;;;;;;5003464;28;20203;-45
2023/12/14 18:05:33;;;;;;;21.88;13.25;;;7.10;99.90;;;;;;5002736;28;20227;-45
2023/12/14 18:07:59;;;;;;;22.17;13.65;;;7.10;99.90;;;;;;5001847;28;20267;-50
2023/12/14 18:10:25;;;;;;;25.48;13.38;;;7.10;99.90;;;;;;5002210;28;20522;-45
2023/12/14 18:12:52;;;;;;;21.92;13.40;;;7.00;99.90;;;;;;5016903;28;20197;-46
2023/12/14 18:15:18;;;;;;;23.90;14.55;;;7.00;99.90;;;;;;5002945;28;20200;-48
2023/12/14 18:17:45;;;;;;;26.77;13.90;;;7.00;99.90;;;;;;5002338;28;20188;-52
2023/12/14 18:20:11;;;;;;;23.95;13.43;;;7.00;99.90;;;;;;5003321;28;20204;-42
2023/12/14 18:22:37;;;;;;;21.08;14.07;;;7.00;99.90;;;;;;5002873;28;20188;-46
2023/12/14 18:25:03;;;;;;;20.02;12.88;;;7.00;99.90;;;;;;5001796;28;20644;-44
2023/12/14 18:27:29;;;;;;;26.27;14.10;;;7.00;99.90;;;;;;5001090;28;20502;-46
2023/12/14 18:29:55;;;;;;;24.63;14.02;;;6.90;99.90;;;;;;5002502;28;20184;-48
2023/12/14 18:32:21;;;;;;;21.75;14.15;;;6.90;99.90;;;;;;5001673;28;20240;-47
2023/12/14 18:34:47;;;;;;;22.60;14.50;;;6.90;99.90;;;;;;5002566;28;20196;-47
2023/12/14 18:37:15;;;;;;;26.73;15.80;;;6.90;99.90;;;;;;5002798;28;20200;-44
2023/12/14 18:39:42;;;;;;;25.33;14.60;;;6.90;99.90;;;;;;5002065;28;20819;-44
2023/12/14 18:42:08;;;;;;;22.38;14.23;;;6.90;99.90;;;;;;5017175;28;20292;-48
2023/12/14 18:44:35;;;;;;;25.08;15.13;;;6.90;99.90;;;;;;5001715;28;20300;-45
2023/12/14 18:47:02;;;;;;;29.33;14.65;;;6.90;99.90;;;;;;5001543;28;20229;-46
2023/12/14 18:49:27;;;;;;;26.38;14.30;;;6.80;99.90;;;;;;5000839;28;20275;-42
2023/12/14 18:51:54;;;;;;;24.35;14.82;;;6.80;99.90;;;;;;5001728;28;20323;-45
2023/12/14 18:54:20;;;;;;;25.23;14.43;;;6.80;99.90;;;;;;5000380;28;20285;-49
2023/12/14 18:56:46;;;;;;;25.45;15.40;;;6.80;99.90;;;;;;5000968;28;20204;-49
2023/12/14 18:59:12;;;;;;;23.65;14.95;;;6.80;99.90;;;;;;5000004;28;20205;-46
2023/12/14 19:01:38;;;;;;;26.35;14.85;;;6.80;99.90;;;;;;4988155;28;20185;-43
2023/12/14 19:04:04;;;;;;;22.35;14.70;;;6.80;99.90;;;;;;5001752;28;20181;-44
2023/12/14 19:06:30;;;;;;;25.20;15.45;;;6.90;99.90;;;;;;5001563;28;20567;-45
2023/12/14 19:08:56;;;;;;;27.85;15.00;;;6.90;99.90;;;;;;5001353;28;20219;-45
2023/12/14 19:11:22;;;;;;;27.17;15.70;;;6.90;99.90;;;;;;5001304;28;20544;-46
2023/12/14 19:13:49;;;;;;;27.60;16.00;;;6.80;99.90;;;;;;5000842;28;20801;-42
2023/12/14 19:16:26;;;;;;;25.05;15.77;;;6.90;99.90;;;;;;5001534;28;20204;-49
2023/12/14 19:18:54;;;;;;;28.13;15.50;;;6.90;99.90;;;;;;5001058;28;20192;-43
2023/12/14 19:21:20;;;;;;;24.95;16.40;;;6.90;99.90;;;;;;5001298;28;20279;-47
2023/12/14 19:23:47;;;;;;;27.02;16.05;;;6.90;99.90;;;;;;5001658;28;20192;-41
2023/12/14 19:26:20;;;;;;;26.27;16.88;;;6.90;99.90;;;;;;5000424;28;20239;-48
2023/12/14 19:28:46;;;;;;;27.13;16.27;;;6.90;99.90;;;;;;5000586;28;20199;-48
2023/12/14 19:31:13;;;;;;;26.33;15.82;;;6.90;99.90;;;;;;4984785;28;20680;-48
2023/12/14 19:33:42;;;;;;;28.52;17.70;;;7.00;99.90;;;;;;5001381;28;20185;-47
2023/12/14 19:36:12;;;;;;;26.73;17.05;;;6.90;99.90;;;;;;5001527;28;20196;-50
2023/12/14 19:38:43;;;;;;;26.17;16.75;;;7.00;99.90;;;;;;5016613;28;20312;-47
2023/12/14 19:41:09;;;;;;;27.92;16.92;;;7.00;99.90;;;;;;4999314;28;20184;-44
2023/12/14 19:43:36;;;;;;;26.77;16.73;;;7.00;99.90;;;;;;5001189;28;20192;-43
2023/12/14 19:46:03;;;;;;;28.75;17.75;;;7.00;99.90;;;;;;5000948;28;20219;-45
2023/12/14 19:48:29;;;;;;;25.95;17.10;;;7.00;99.90;;;;;;5001185;28;20242;-50
2023/12/14 19:50:56;;;;;;;28.02;17.00;;;7.00;99.90;;;;;;4999414;28;20592;-50
2023/12/14 19:53:23;;;;;;;29.27;17.65;;;7.00;99.90;;;;;;5016660;28;20196;-47
2023/12/14 19:55:49;;;;;;;27.92;18.00;;;7.10;99.90;;;;;;5000488;28;20211;-44
2023/12/14 19:58:15;;;;;;;28.27;17.42;;;7.10;99.90;;;;;;5000944;28;20645;-46
2023/12/14 20:00:43;;;;;;;27.52;17.30;;;7.10;99.90;;;;;;5001008;28;20196;-46
2023/12/14 20:03:10;;;;;;;31.73;18.15;;;7.10;99.90;;;;;;5016699;28;20291;-49
2023/12/14 20:05:40;;;;;;;27.90;18.05;;;7.10;99.90;;;;;;5000860;28;20212;-45
2023/12/14 20:08:06;;;;;;;31.35;19.10;;;7.10;99.90;;;;;;4982770;28;20267;-42
2023/12/14 20:10:33;;;;;;;29.40;17.58;;;7.10;99.90;;;;;;4999784;28;20181;-48
2023/12/14 20:12:59;;;;;;;25.65;17.73;;;7.10;99.90;;;;;;5001124;28;20919;-46
2023/12/14 20:15:24;;;;;;;26.95;16.33;;;7.10;99.90;;;;;;5003888;28;20192;-48
2023/12/14 20:17:50;;;;;;;26.70;17.77;;;7.00;99.90;;;;;;5004378;28;20212;-45
2023/12/14 20:20:16;;;;;;;31.48;17.73;;;7.10;99.90;;;;;;5005569;28;20197;-45
2023/12/14 20:22:42;;;;;;;30.48;16.83;;;7.10;99.90;;;;;;5004045;28;20203;-46
2023/12/14 20:25:08;;;;;;;30.83;18.45;;;7.10;99.90;;;;;;5003923;28;20375;-50
2023/12/14 20:27:34;;;;;;;26.63;17.63;;;7.10;99.90;;;;;;5020800;28;20201;-50
2023/12/14 20:30:03;;;;;;;28.33;18.30;;;7.10;99.90;;;;;;5004130;28;20195;-51
2023/12/14 20:32:30;;;;;;;29.05;17.75;;;7.20;99.90;;;;;;5004210;28;20666;-48
2023/12/14 20:34:55;;;;;;;31.35;18.45;;;7.10;99.90;;;;;;5004298;28;20204;-47
2023/12/14 20:37:21;;;;;;;24.85;17.25;;;7.20;99.90;;;;;;5019512;28;20251;-49
2023/12/14 20:39:47;;;;;;;32.03;18.88;;;7.10;99.90;;;;;;5004643;28;20199;-45
2023/12/14 20:42:13;;;;;;;30.15;18.85;;;7.20;99.90;;;;;;5002823;28;20299;-45
2023/12/14 20:44:39;;;;;;;27.35;18.65;;;7.10;99.90;;;;;;5004583;28;20265;-51
2023/12/14 20:47:05;;;;;;;28.67;18.08;;;7.10;99.90;;;;;;5004757;28;20223;-48
2023/12/14 20:49:31;;;;;;;28.15;18.45;;;7.10;99.90;;;;;;5002880;28;20668;-44
2023/12/14 20:51:58;;;;;;;31.00;18.80;;;7.20;99.90;;;;;;5018995;28;20197;-46
2023/12/14 20:54:24;;;;;;;29.10;18.52;;;7.20;99.90;;;;;;5017532;28;20212;-46
2023/12/14 20:56:50;;;;;;;31.77;19.05;;;7.20;99.90;;;;;;5004657;28;20172;-44
2023/12/14 20:59:16;;;;;;;30.58;18.83;;;7.20;99.90;;;;;;5000727;28;20189;-47
2023/12/14 21:01:42;;;;;;;33.50;19.15;;;7.20;99.90;;;;;;5004545;28;20193;-51
2023/12/14 21:04:08;;;;;;;31.98;19.90;;;7.20;99.90;;;;;;5003349;28;20215;-46
2023/12/14 21:06:34;;;;;;;30.63;19.52;;;7.20;99.90;;;;;;5002787;28;20220;-47
2023/12/14 21:09:00;;;;;;;32.85;19.88;;;7.20;99.90;;;;;;5004131;28;20311;-46
2023/12/14 21:11:26;;;;;;;35.28;20.95;;;7.20;99.90;;;;;;5003950;28;20687;-46
2023/12/14 21:13:52;;;;;;;34.22;19.75;;;7.20;99.90;;;;;;5003865;28;20641;-47
2023/12/14 21:16:18;;;;;;;33.65;20.80;;;7.20;99.90;;;;;;5003698;28;20197;-45
2023/12/14 21:18:46;;;;;;;33.78;20.25;;;7.20;99.90;;;;;;5004296;28;20279;-46
2023/12/14 21:21:13;;;;;;;33.45;20.80;;;7.10;99.90;;;;;;5017853;28;20188;-46
2023/12/14 21:23:39;;;;;;;32.53;20.67;;;7.20;99.90;;;;;;5002612;28;20212;-46
2023/12/14 21:26:11;;;;;;;33.95;21.33;;;7.20;99.90;;;;;;5003934;28;20244;-45
2023/12/14 21:28:36;;;;;;;33.38;20.52;;;7.20;99.90;;;;;;5002515;28;20196;-45
2023/12/14 21:31:03;;;;;;;34.92;21.08;;;7.20;99.90;;;;;;5003923;28;20697;-45
2023/12/14 21:33:30;;;;;;;32.85;20.77;;;7.20;99.90;;;;;;5001748;28;20189;-45
2023/12/14 21:35:57;;;;;;;41.75;20.27;;;7.20;99.90;;;;;;5004142;28;20184;-43
2023/12/14 21:38:23;;;;;;;33.35;20.27;;;7.20;99.90;;;;;;5002356;28;20200;-44
2023/12/14 21:40:49;;;;;;;33.53;20.30;;;7.20;99.90;;;;;;5003772;28;20258;-49
2023/12/14 21:43:15;;;;;;;35.20;21.20;;;7.20;99.90;;;;;;5003119;28;21320;-45
2023/12/14 21:45:42;;;;;;;33.70;20.25;;;7.20;99.90;;;;;;5003727;28;20335;-43
2023/12/14 21:48:08;;;;;;;38.15;22.00;;;7.20;99.90;;;;;;5003381;28;20206;-43
2023/12/14 21:50:34;;;;;;;36.10;21.40;;;7.20;99.90;;;;;;5004051;28;20197;-48
2023/12/14 21:53:00;;;;;;;36.30;21.10;;;7.20;99.90;;;;;;5003022;28;20196;-46
2023/12/14 21:55:26;;;;;;;33.60;21.00;;;7.20;99.90;;;;;;5001990;28;20204;-48
2023/12/14 21:57:52;;;;;;;36.45;22.75;;;7.20;99.90;;;;;;5002895;28;20203;-46
2023/12/14 22:00:21;;;;;;;33.58;21.95;;;7.20;99.90;;;;;;5003254;28;20195;-43
2023/12/14 22:02:47;;;;;;;33.92;21.95;;;7.20;99.90;;;;;;5002808;28;20199;-44
2023/12/14 22:05:13;;;;;;;35.90;21.52;;;7.20;99.90;;;;;;5002190;28;20208;-45
2023/12/14 22:07:39;;;;;;;34.78;22.08;;;7.20;99.90;;;;;;4999329;28;20195;-46
2023/12/14 22:10:06;;;;;;;37.35;21.75;;;7.20;99.90;;;;;;5003281;28;20652;-47
2023/12/14 22:12:32;;;;;;;39.05;21.55;;;7.20;99.90;;;;;;5002903;28;20186;-45
2023/12/14 22:14:58;;;;;;;40.65;21.83;;;7.10;99.90;;;;;;5002354;28;20188;-47
2023/12/14 22:17:24;;;;;;;36.70;22.00;;;7.10;99.90;;;;;;5002854;28;20199;-45
2023/12/14 22:19:49;;;;;;;41.25;22.48;;;7.10;99.90;;;;;;5002342;28;20196;-44
2023/12/14 22:22:15;;;;;;;34.75;21.88;;;7.20;99.90;;;;;;4999862;28;20188;-46
2023/12/14 22:24:41;;;;;;;41.13;22.73;;;7.20;99.90;;;;;;5003181;28;20219;-48
2023/12/14 22:27:07;;;;;;;37.20;22.88;;;7.10;99.90;;;;;;5003206;28;20726;-46
2023/12/14 22:29:34;;;;;;;38.88;22.05;;;7.10;99.90;;;;;;5002371;28;20224;-45
2023/12/14 22:32:00;;;;;;;38.90;21.85;;;7.10;99.90;;;;;;5002045;28;20185;-43
2023/12/14 22:34:26;;;;;;;35.83;22.77;;;7.10;99.90;;;;;;5002435;28;20243;-45
2023/12/14 22:36:52;;;;;;;37.45;21.63;;;7.10;99.90;;;;;;5002401;28;20184;-50
2023/12/14 22:39:18;;;;;;;39.75;22.02;;;7.10;99.90;;;;;;5002119;28;20196;-47
2023/12/14 22:41:44;;;;;;;39.55;23.13;;;7.10;99.90;;;;;;5001627;28;20243;-48
2023/12/14 22:44:10;;;;;;;36.70;21.70;;;7.10;99.90;;;;;;5001768;28;21391;-46
2023/12/14 22:46:42;;;;;;;39.22;22.45;;;7.10;99.90;;;;;;5000745;28;20731;-49
2023/12/14 22:49:08;;;;;;;40.10;22.95;;;7.10;99.90;;;;;;5001718;28;20183;-49
2023/12/14 22:51:35;;;;;;;36.70;22.00;;;7.10;99.90;;;;;;5002480;28;20189;-47
2023/12/14 22:54:02;;;;;;;38.08;22.42;;;7.10;99.90;;;;;;5001370;28;20295;-45
2023/12/14 22:56:28;;;;;;;43.83;22.92;;;7.10;99.90;;;;;;5002767;28;20201;-47
2023/12/14 22:58:54;;;;;;;38.03;24.20;;;7.10;99.90;;;;;;5002515;28;20647;-42
2023/12/14 23:01:33;;;;;;;40.58;23.52;;;7.10;99.90;;;;;;5001667;28;20200;-49
2023/12/14 23:04:01;;;;;;;38.38;22.50;;;7.10;99.90;;;;;;5001690;28;20235;-45
2023/12/14 23:06:27;;;;;;;40.00;23.02;;;7.10;99.90;;;;;;5001875;28;20873;-49
2023/12/14 23:08:54;;;;;;;42.00;21.83;;;7.10;99.90;;;;;;5001337;28;20192;-43
2023/12/14 23:11:20;;;;;;;35.53;21.40;;;7.10;99.90;;;;;;5001676;28;20282;-50
2023/12/14 23:13:47;;;;;;;40.35;22.70;;;7.20;99.90;;;;;;5001256;28;20179;-50
2023/12/14 23:16:13;;;;;;;41.95;22.35;;;7.10;99.90;;;;;;5002214;28;20254;-47
2023/12/14 23:18:39;;;;;;;41.22;22.83;;;7.20;99.90;;;;;;5000527;28;20242;-46
2023/12/14 23:21:05;;;;;;;39.45;22.33;;;7.20;99.90;;;;;;5001665;28;20208;-45
2023/12/14 23:23:31;;;;;;;45.97;22.77;;;7.20;99.90;;;;;;5000530;28;20201;-47
2023/12/14 23:25:57;;;;;;;42.35;21.65;;;7.20;99.90;;;;;;5001939;28;20971;-43
2023/12/14 23:28:23;;;;;;;40.00;22.27;;;7.20;99.90;;;;;;5001493;28;20205;-46
2023/12/14 23:30:49;;;;;;;36.97;22.30;;;7.20;99.90;;;;;;5001197;28;20189;-47
2023/12/14 23:33:15;;;;;;;44.72;22.40;;;7.20;99.90;;;;;;5003508;28;20196;-43
2023/12/14 23:35:42;;;;;;;35.33;20.70;;;7.20;99.90;;;;;;5001969;28;20681;-45
2023/12/14 23:38:08;;;;;;;40.00;21.52;;;7.20;99.90;;;;;;5001300;28;20648;-42
2023/12/14 23:40:34;;;;;;;39.03;22.38;;;7.20;99.90;;;;;;5002154;28;20246;-42
2023/12/14 23:43:00;;;;;;;40.20;21.73;;;7.20;99.90;;;;;;5002232;28;20570;-44
2023/12/14 23:45:27;;;;;;;44.30;22.20;;;7.20;99.90;;;;;;5001680;28;20220;-42
2023/12/14 23:47:53;;;;;;;40.42;22.05;;;7.20;99.90;;;;;;5003875;28;20308;-43
2023/12/14 23:50:18;;;;;;;37.10;21.65;;;7.20;99.90;;;;;;5005887;28;20188;-48
2023/12/14 23:52:44;;;;;;;38.75;22.15;;;7.20;99.90;;;;;;4990473;28;20276;-47
2023/12/14 23:55:10;;;;;;;37.45;22.02;;;7.20;99.90;;;;;;5004496;28;20188;-48
2023/12/14 23:57:37;;;;;;;39.95;22.60;;;7.20;99.90;;;;;;5005275;28;20192;-49
